Tropical Cyclones
[Index]
Main Index Home Page Stock Weather Photos Extreme Storms Discussion Storm News and Storm Chasing Reports Tropical Cyclones / Hurricanes / Typhoons Weather Data and Links Wild Fires / Bushfires Weather Observation Techniques Weather Picture Catalogue Tornado Pictures and Reports Stock Video Footage and DVDs for sale
Season 2013-2014 Tropical Cyclone FLETCHER Track Map
Season 2013-2014 Summaries (Operational Data): [AU] [SIO] [SPAC] [SH]
<<- Previous TC | 2013-2014 Season | Next TC ->>

click for intensity scale information  Lat/long Grid: Show Hide

 Date Labels: Show Hide

Operational Tropical Cyclone Data

Name: FLETCHER
Number: 14S1

01 Feb 2014 06:00 UTC to 11 Feb 2014 18:00 UTC

    date/time    lat    long     hPa   cat  kts
2014-02-01 06   13.5   125.7    1010         15          
2014-02-01 12   13.5   125.9    1010         15          
2014-02-01 18   13.5   126.3    1002         20          
2014-02-02 00   13.6   126.7     999         25          
2014-02-02 06   13.8   127.3     997         30          
2014-02-02 12   14.1   128.0     997         30          
2014-02-02 18   14.6   128.9     997         30          
2014-02-03 00   14.9   129.5     997         30          
2014-02-03 06   15.1   129.9    1000         30          
2014-02-03 12   15.3   130.3    1004         25          
2014-02-03 18   15.6   130.8    1000         25          
2014-02-04 00   15.8   131.5    1000         25          
2014-02-04 06   15.8   132.1    1004         25          
2014-02-04 12   16.3   132.5    1004         25          
2014-02-04 18   17.0   132.5    1004         25          
2014-02-05 00   17.6   132.5    1004         25          
2014-02-05 06   18.0   132.2    1004         25          
2014-02-05 12   17.7   131.7    1004         25          
2014-02-05 18   17.5   131.0    1004         25          
2014-02-06 00   17.4   130.4    1004         25          
2014-02-06 06   17.1   129.7    1004         25          
2014-02-06 12   16.7   129.3    1004         25          
2014-02-06 18   16.3   129.0    1004         25          
2014-02-07 00   16.0   128.6    1004         25          
2014-02-07 06   15.8   128.3    1004         25          
2014-02-07 12   15.8   128.0    1004         25          
2014-02-07 18   15.8   127.8    1000         20          
2014-02-08 00   16.2   127.5    1000         20          
2014-02-08 06   16.5   127.1    1007         20          
2014-02-08 12   16.8   126.5    1007         20          
2014-02-08 18   17.0   125.9     997         20          
2014-02-09 00   17.4   125.0     997         20          
2014-02-09 06   17.7   124.2     992         20          
2014-02-09 12   18.1   123.6     998         20          
2014-02-09 18   18.8   122.9     994         20          
2014-02-10 00   19.1   122.4     994         20          
2014-02-10 06   19.5   122.2     994         20          
2014-02-10 12   19.9   122.0     999         20          
2014-02-10 18   20.2   121.8    1000         30          
2014-02-11 00   20.7   121.6     995         30          
2014-02-11 06   21.8   121.4     996         30          
2014-02-11 12   22.8   121.3     995         30          
2014-02-11 18   23.8   121.6    1000         30          
Winds are 10-min average.

Tropical cyclone tracks developed by Michael Bath using operational warnings and advisories and Google Maps.


[Australian Severe Weather index] [Copyright Notice] [Email Contacts] [Search This Site] [Privacy Policy]
Document: tropical_cyclone_fletcher.htm Updated: 2 May 2017